sensor_id;sensor_type;location;lat;lon;timestamp;P1;durP1;ratioP1;P2;durP2;ratioP2
44228;SDS011;29904;51.058;5.378;2023-01-29T00:01:56;42.88;;;23.40;;
44228;SDS011;29904;51.058;5.378;2023-01-29T00:04:22;40.25;;;23.30;;
44228;SDS011;29904;51.058;5.378;2023-01-29T00:06:48;41.88;;;23.98;;
44228;SDS011;29904;51.058;5.378;2023-01-29T00:09:14;43.95;;;24.25;;
44228;SDS011;29904;51.058;5.378;2023-01-29T00:11:40;41.00;;;22.70;;
44228;SDS011;29904;51.058;5.378;2023-01-29T00:14:06;43.88;;;24.08;;
44228;SDS011;29904;51.058;5.378;2023-01-29T00:16:32;39.25;;;21.95;;
44228;SDS011;29904;51.058;5.378;2023-01-29T00:19:00;39.47;;;22.38;;
44228;SDS011;29904;51.058;5.378;2023-01-29T00:21:26;40.38;;;22.35;;
44228;SDS011;29904;51.058;5.378;2023-01-29T00:23:54;37.60;;;20.88;;
44228;SDS011;29904;51.058;5.378;2023-01-29T00:26:20;43.85;;;23.80;;
44228;SDS011;29904;51.058;5.378;2023-01-29T00:28:46;42.77;;;23.20;;
44228;SDS011;29904;51.058;5.378;2023-01-29T00:31:13;45.05;;;23.55;;
44228;SDS011;29904;51.058;5.378;2023-01-29T00:33:44;44.03;;;22.88;;
44228;SDS011;29904;51.058;5.378;2023-01-29T00:36:11;48.65;;;25.55;;
44228;SDS011;29904;51.058;5.378;2023-01-29T00:38:38;49.35;;;25.55;;
44228;SDS011;29904;51.058;5.378;2023-01-29T00:41:10;51.15;;;26.50;;
44228;SDS011;29904;51.058;5.378;2023-01-29T00:43:56;50.03;;;25.63;;
44228;SDS011;29904;51.058;5.378;2023-01-29T00:46:40;47.50;;;25.60;;
44228;SDS011;29904;51.058;5.378;2023-01-29T00:49:06;45.53;;;24.60;;
44228;SDS011;29904;51.058;5.378;2023-01-29T00:51:33;42.92;;;22.50;;
44228;SDS011;29904;51.058;5.378;2023-01-29T00:53:59;42.58;;;23.27;;
44228;SDS011;29904;51.058;5.378;2023-01-29T00:56:28;39.53;;;21.65;;
44228;SDS011;29904;51.058;5.378;2023-01-29T00:58:55;36.90;;;21.10;;
44228;SDS011;29904;51.058;5.378;2023-01-29T01:01:21;41.47;;;22.48;;
44228;SDS011;29904;51.058;5.378;2023-01-29T01:04:05;39.43;;;21.87;;
44228;SDS011;29904;51.058;5.378;2023-01-29T01:06:32;40.83;;;22.80;;
44228;SDS011;29904;51.058;5.378;2023-01-29T01:09:00;39.75;;;22.17;;
44228;SDS011;29904;51.058;5.378;2023-01-29T01:11:44;40.55;;;21.75;;
44228;SDS011;29904;51.058;5.378;2023-01-29T01:14:10;37.80;;;21.27;;
44228;SDS011;29904;51.058;5.378;2023-01-29T01:16:36;37.40;;;20.77;;
44228;SDS011;29904;51.058;5.378;2023-01-29T01:19:02;44.80;;;23.38;;
44228;SDS011;29904;51.058;5.378;2023-01-29T01:21:28;41.53;;;22.17;;
44228;SDS011;29904;51.058;5.378;2023-01-29T01:23:54;39.67;;;21.67;;
44228;SDS011;29904;51.058;5.378;2023-01-29T01:26:19;35.47;;;19.90;;
44228;SDS011;29904;51.058;5.378;2023-01-29T01:28:45;34.65;;;18.77;;
44228;SDS011;29904;51.058;5.378;2023-01-29T01:31:11;33.92;;;18.83;;
44228;SDS011;29904;51.058;5.378;2023-01-29T01:33:38;34.43;;;19.40;;
44228;SDS011;29904;51.058;5.378;2023-01-29T01:36:06;37.08;;;20.33;;
44228;SDS011;29904;51.058;5.378;2023-01-29T01:38:36;34.85;;;19.58;;
44228;SDS011;29904;51.058;5.378;2023-01-29T01:41:08;38.28;;;21.25;;
44228;SDS011;29904;51.058;5.378;2023-01-29T01:43:55;35.92;;;19.83;;
44228;SDS011;29904;51.058;5.378;2023-01-29T01:46:22;36.80;;;20.33;;
44228;SDS011;29904;51.058;5.378;2023-01-29T01:48:55;39.50;;;21.52;;
44228;SDS011;29904;51.058;5.378;2023-01-29T01:51:25;33.33;;;19.30;;
44228;SDS011;29904;51.058;5.378;2023-01-29T01:53:56;35.50;;;19.30;;
44228;SDS011;29904;51.058;5.378;2023-01-29T01:56:28;37.25;;;20.95;;
44228;SDS011;29904;51.058;5.378;2023-01-29T01:59:02;37.63;;;20.98;;
44228;SDS011;29904;51.058;5.378;2023-01-29T02:01:34;34.58;;;19.63;;
44228;SDS011;29904;51.058;5.378;2023-01-29T02:04:09;36.83;;;20.48;;
44228;SDS011;29904;51.058;5.378;2023-01-29T02:06:59;36.33;;;20.23;;
44228;SDS011;29904;51.058;5.378;2023-01-29T02:09:47;37.53;;;20.67;;
44228;SDS011;29904;51.058;5.378;2023-01-29T02:12:17;36.95;;;20.30;;
44228;SDS011;29904;51.058;5.378;2023-01-29T02:14:45;37.85;;;21.27;;
44228;SDS011;29904;51.058;5.378;2023-01-29T02:17:15;38.58;;;21.67;;
44228;SDS011;29904;51.058;5.378;2023-01-29T02:19:52;34.42;;;18.63;;
44228;SDS011;29904;51.058;5.378;2023-01-29T02:30:27;34.65;;;19.42;;
44228;SDS011;29904;51.058;5.378;2023-01-29T02:41:15;34.70;;;18.23;;
44228;SDS011;29904;51.058;5.378;2023-01-29T02:43:58;31.70;;;18.25;;
44228;SDS011;29904;51.058;5.378;2023-01-29T02:46:51;31.40;;;17.83;;
44228;SDS011;29904;51.058;5.378;2023-01-29T02:49:36;35.05;;;19.67;;
44228;SDS011;29904;51.058;5.378;2023-01-29T02:52:22;34.45;;;19.02;;
44228;SDS011;29904;51.058;5.378;2023-01-29T02:55:12;32.72;;;17.58;;
44228;SDS011;29904;51.058;5.378;2023-01-29T02:58:03;32.08;;;17.83;;
44228;SDS011;29904;51.058;5.378;2023-01-29T03:00:38;35.50;;;19.08;;
44228;SDS011;29904;51.058;5.378;2023-01-29T03:03:22;30.15;;;17.13;;
44228;SDS011;29904;51.058;5.378;2023-01-29T03:11:10;35.83;;;19.40;;
44228;SDS011;29904;51.058;5.378;2023-01-29T03:21:39;40.60;;;20.98;;
44228;SDS011;29904;51.058;5.378;2023-01-29T03:24:16;36.00;;;19.17;;
44228;SDS011;29904;51.058;5.378;2023-01-29T03:27:07;43.50;;;21.67;;
44228;SDS011;29904;51.058;5.378;2023-01-29T03:29:54;52.40;;;24.75;;
44228;SDS011;29904;51.058;5.378;2023-01-29T03:32:41;43.05;;;23.20;;
44228;SDS011;29904;51.058;5.378;2023-01-29T03:35:09;36.50;;;20.67;;
44228;SDS011;29904;51.058;5.378;2023-01-29T03:37:41;40.97;;;21.55;;
44228;SDS011;29904;51.058;5.378;2023-01-29T03:40:10;38.60;;;20.60;;
44228;SDS011;29904;51.058;5.378;2023-01-29T03:42:43;36.87;;;20.43;;
44228;SDS011;29904;51.058;5.378;2023-01-29T03:48:35;37.55;;;19.65;;
44228;SDS011;29904;51.058;5.378;2023-01-29T03:54:06;46.47;;;22.30;;
44228;SDS011;29904;51.058;5.378;2023-01-29T04:02:04;45.30;;;23.40;;
44228;SDS011;29904;51.058;5.378;2023-01-29T04:04:35;37.83;;;20.17;;
44228;SDS011;29904;51.058;5.378;2023-01-29T04:07:07;39.50;;;19.67;;
44228;SDS011;29904;51.058;5.378;2023-01-29T04:10:37;35.78;;;19.23;;
44228;SDS011;29904;51.058;5.378;2023-01-29T04:12:42;35.38;;;19.52;;
44228;SDS011;29904;51.058;5.378;2023-01-29T04:15:19;34.90;;;19.48;;
44228;SDS011;29904;51.058;5.378;2023-01-29T04:17:48;34.78;;;18.92;;
44228;SDS011;29904;51.058;5.378;2023-01-29T04:20:16;33.90;;;18.42;;
44228;SDS011;29904;51.058;5.378;2023-01-29T04:22:47;31.25;;;17.73;;
44228;SDS011;29904;51.058;5.378;2023-01-29T04:25:15;31.70;;;17.73;;
44228;SDS011;29904;51.058;5.378;2023-01-29T04:28:02;32.20;;;19.10;;
44228;SDS011;29904;51.058;5.378;2023-01-29T04:33:20;35.75;;;19.73;;
44228;SDS011;29904;51.058;5.378;2023-01-29T04:43:58;32.83;;;18.15;;
44228;SDS011;29904;51.058;5.378;2023-01-29T04:49:18;33.25;;;18.92;;
44228;SDS011;29904;51.058;5.378;2023-01-29T04:52:06;33.73;;;17.50;;
44228;SDS011;29904;51.058;5.378;2023-01-29T04:57:19;31.88;;;18.05;;
44228;SDS011;29904;51.058;5.378;2023-01-29T04:59:58;33.25;;;18.10;;
44228;SDS011;29904;51.058;5.378;2023-01-29T05:02:36;35.70;;;18.83;;
44228;SDS011;29904;51.058;5.378;2023-01-29T05:05:05;33.20;;;18.45;;
44228;SDS011;29904;51.058;5.378;2023-01-29T05:07:33;33.40;;;18.83;;
44228;SDS011;29904;51.058;5.378;2023-01-29T05:10:02;31.17;;;18.05;;
44228;SDS011;29904;51.058;5.378;2023-01-29T05:12:30;30.07;;;17.40;;
44228;SDS011;29904;51.058;5.378;2023-01-29T05:14:59;31.70;;;17.67;;
44228;SDS011;29904;51.058;5.378;2023-01-29T05:17:26;32.00;;;18.73;;
44228;SDS011;29904;51.058;5.378;2023-01-29T05:19:54;34.63;;;18.92;;
44228;SDS011;29904;51.058;5.378;2023-01-29T05:22:20;30.20;;;17.80;;
44228;SDS011;29904;51.058;5.378;2023-01-29T05:24:50;31.83;;;18.33;;
44228;SDS011;29904;51.058;5.378;2023-01-29T05:27:17;31.33;;;18.48;;
44228;SDS011;29904;51.058;5.378;2023-01-29T05:30:11;32.83;;;18.42;;
44228;SDS011;29904;51.058;5.378;2023-01-29T05:32:37;32.65;;;18.45;;
44228;SDS011;29904;51.058;5.378;2023-01-29T05:35:04;30.50;;;17.90;;
44228;SDS011;29904;51.058;5.378;2023-01-29T05:37:32;33.95;;;18.80;;
44228;SDS011;29904;51.058;5.378;2023-01-29T05:39:57;32.37;;;18.27;;
44228;SDS011;29904;51.058;5.378;2023-01-29T05:42:23;33.50;;;19.97;;
44228;SDS011;29904;51.058;5.378;2023-01-29T05:44:49;36.85;;;20.05;;
44228;SDS011;29904;51.058;5.378;2023-01-29T05:47:18;36.10;;;19.93;;
44228;SDS011;29904;51.058;5.378;2023-01-29T05:49:44;34.85;;;19.67;;
44228;SDS011;29904;51.058;5.378;2023-01-29T05:52:10;35.72;;;20.05;;
44228;SDS011;29904;51.058;5.378;2023-01-29T05:54:36;35.37;;;18.87;;
44228;SDS011;29904;51.058;5.378;2023-01-29T05:57:01;33.40;;;19.23;;
44228;SDS011;29904;51.058;5.378;2023-01-29T05:59:27;32.08;;;19.20;;
44228;SDS011;29904;51.058;5.378;2023-01-29T06:01:55;34.22;;;19.08;;
44228;SDS011;29904;51.058;5.378;2023-01-29T06:04:21;36.28;;;19.52;;
44228;SDS011;29904;51.058;5.378;2023-01-29T06:06:49;32.58;;;18.20;;
44228;SDS011;29904;51.058;5.378;2023-01-29T06:09:15;33.07;;;19.27;;
44228;SDS011;29904;51.058;5.378;2023-01-29T06:11:41;35.65;;;20.75;;
44228;SDS011;29904;51.058;5.378;2023-01-29T06:14:09;36.80;;;20.40;;
44228;SDS011;29904;51.058;5.378;2023-01-29T06:16:34;35.67;;;19.83;;
44228;SDS011;29904;51.058;5.378;2023-01-29T06:19:00;31.90;;;18.63;;
44228;SDS011;29904;51.058;5.378;2023-01-29T06:21:28;33.05;;;18.88;;
44228;SDS011;29904;51.058;5.378;2023-01-29T06:23:55;34.60;;;18.70;;
44228;SDS011;29904;51.058;5.378;2023-01-29T06:26:21;31.93;;;18.33;;
44228;SDS011;29904;51.058;5.378;2023-01-29T06:28:50;33.43;;;18.90;;
44228;SDS011;29904;51.058;5.378;2023-01-29T06:31:15;33.15;;;19.33;;
44228;SDS011;29904;51.058;5.378;2023-01-29T06:33:42;31.27;;;18.40;;
44228;SDS011;29904;51.058;5.378;2023-01-29T06:36:09;33.83;;;19.08;;
44228;SDS011;29904;51.058;5.378;2023-01-29T06:38:35;34.13;;;19.85;;
44228;SDS011;29904;51.058;5.378;2023-01-29T06:41:07;32.95;;;19.15;;
44228;SDS011;29904;51.058;5.378;2023-01-29T06:43:37;35.25;;;20.00;;
44228;SDS011;29904;51.058;5.378;2023-01-29T06:46:05;33.65;;;19.65;;
44228;SDS011;29904;51.058;5.378;2023-01-29T06:48:32;35.45;;;20.65;;
44228;SDS011;29904;51.058;5.378;2023-01-29T06:51:01;36.03;;;20.33;;
44228;SDS011;29904;51.058;5.378;2023-01-29T06:53:29;35.60;;;20.73;;
44228;SDS011;29904;51.058;5.378;2023-01-29T06:55:55;33.70;;;19.27;;
44228;SDS011;29904;51.058;5.378;2023-01-29T06:58:21;32.78;;;19.35;;
44228;SDS011;29904;51.058;5.378;2023-01-29T07:00:47;34.17;;;19.80;;
44228;SDS011;29904;51.058;5.378;2023-01-29T07:03:14;35.75;;;20.42;;
44228;SDS011;29904;51.058;5.378;2023-01-29T07:05:40;36.47;;;19.90;;
44228;SDS011;29904;51.058;5.378;2023-01-29T07:08:06;34.83;;;19.77;;
44228;SDS011;29904;51.058;5.378;2023-01-29T07:10:34;32.00;;;18.87;;
44228;SDS011;29904;51.058;5.378;2023-01-29T07:13:00;34.07;;;19.60;;
44228;SDS011;29904;51.058;5.378;2023-01-29T07:15:26;37.53;;;22.30;;
44228;SDS011;29904;51.058;5.378;2023-01-29T07:17:58;33.17;;;19.97;;
44228;SDS011;29904;51.058;5.378;2023-01-29T07:20:28;31.17;;;17.60;;
44228;SDS011;29904;51.058;5.378;2023-01-29T07:22:55;33.83;;;19.13;;
44228;SDS011;29904;51.058;5.378;2023-01-29T07:25:22;35.70;;;20.13;;
44228;SDS011;29904;51.058;5.378;2023-01-29T07:27:48;31.77;;;18.45;;
44228;SDS011;29904;51.058;5.378;2023-01-29T07:30:14;34.70;;;19.95;;
44228;SDS011;29904;51.058;5.378;2023-01-29T07:32:40;35.10;;;20.40;;
44228;SDS011;29904;51.058;5.378;2023-01-29T07:35:06;38.33;;;21.47;;
44228;SDS011;29904;51.058;5.378;2023-01-29T07:37:33;33.63;;;19.60;;
44228;SDS011;29904;51.058;5.378;2023-01-29T07:39:58;36.03;;;20.70;;
44228;SDS011;29904;51.058;5.378;2023-01-29T07:42:24;34.80;;;19.45;;
44228;SDS011;29904;51.058;5.378;2023-01-29T07:44:49;32.90;;;19.02;;
44228;SDS011;29904;51.058;5.378;2023-01-29T07:47:15;35.83;;;19.60;;
44228;SDS011;29904;51.058;5.378;2023-01-29T07:49:41;35.13;;;20.03;;
44228;SDS011;29904;51.058;5.378;2023-01-29T07:52:06;36.90;;;20.35;;
44228;SDS011;29904;51.058;5.378;2023-01-29T07:54:32;36.28;;;20.65;;
44228;SDS011;29904;51.058;5.378;2023-01-29T07:56:58;33.35;;;19.02;;
44228;SDS011;29904;51.058;5.378;2023-01-29T07:59:24;39.50;;;22.17;;
44228;SDS011;29904;51.058;5.378;2023-01-29T08:01:49;34.95;;;19.85;;
44228;SDS011;29904;51.058;5.378;2023-01-29T08:04:17;35.72;;;20.17;;
44228;SDS011;29904;51.058;5.378;2023-01-29T08:06:43;36.47;;;20.48;;
44228;SDS011;29904;51.058;5.378;2023-01-29T08:09:09;34.70;;;19.20;;
44228;SDS011;29904;51.058;5.378;2023-01-29T08:11:34;35.22;;;20.67;;
44228;SDS011;29904;51.058;5.378;2023-01-29T08:14:00;38.45;;;20.48;;
44228;SDS011;29904;51.058;5.378;2023-01-29T08:16:26;33.87;;;20.10;;
44228;SDS011;29904;51.058;5.378;2023-01-29T08:18:52;36.28;;;20.83;;
44228;SDS011;29904;51.058;5.378;2023-01-29T08:21:18;36.33;;;20.65;;
44228;SDS011;29904;51.058;5.378;2023-01-29T08:23:43;38.63;;;21.70;;
44228;SDS011;29904;51.058;5.378;2023-01-29T08:26:09;36.63;;;21.33;;
44228;SDS011;29904;51.058;5.378;2023-01-29T08:28:37;36.80;;;20.90;;
44228;SDS011;29904;51.058;5.378;2023-01-29T08:31:03;36.28;;;20.60;;
44228;SDS011;29904;51.058;5.378;2023-01-29T08:33:29;35.72;;;20.70;;
44228;SDS011;29904;51.058;5.378;2023-01-29T08:35:57;38.10;;;21.27;;
44228;SDS011;29904;51.058;5.378;2023-01-29T08:38:22;42.78;;;22.27;;
44228;SDS011;29904;51.058;5.378;2023-01-29T08:40:48;37.42;;;21.25;;
44228;SDS011;29904;51.058;5.378;2023-01-29T08:43:14;40.08;;;21.77;;
44228;SDS011;29904;51.058;5.378;2023-01-29T08:45:44;41.83;;;22.85;;
44228;SDS011;29904;51.058;5.378;2023-01-29T08:48:10;39.53;;;21.25;;
44228;SDS011;29904;51.058;5.378;2023-01-29T08:50:36;38.28;;;20.88;;
44228;SDS011;29904;51.058;5.378;2023-01-29T08:53:04;40.05;;;22.05;;
44228;SDS011;29904;51.058;5.378;2023-01-29T08:55:32;41.80;;;22.60;;
44228;SDS011;29904;51.058;5.378;2023-01-29T08:57:59;42.65;;;23.13;;
44228;SDS011;29904;51.058;5.378;2023-01-29T09:00:25;37.83;;;21.13;;
44228;SDS011;29904;51.058;5.378;2023-01-29T09:02:51;36.20;;;20.40;;
44228;SDS011;29904;51.058;5.378;2023-01-29T09:05:16;39.30;;;22.40;;
44228;SDS011;29904;51.058;5.378;2023-01-29T09:07:44;40.38;;;22.63;;
44228;SDS011;29904;51.058;5.378;2023-01-29T09:10:10;38.93;;;21.87;;
44228;SDS011;29904;51.058;5.378;2023-01-29T09:12:36;41.55;;;22.30;;
44228;SDS011;29904;51.058;5.378;2023-01-29T09:15:02;35.27;;;20.67;;
44228;SDS011;29904;51.058;5.378;2023-01-29T09:17:30;37.25;;;20.92;;
44228;SDS011;29904;51.058;5.378;2023-01-29T09:19:56;41.00;;;22.20;;
44228;SDS011;29904;51.058;5.378;2023-01-29T09:22:22;39.58;;;22.48;;
44228;SDS011;29904;51.058;5.378;2023-01-29T09:24:50;41.88;;;22.40;;
44228;SDS011;29904;51.058;5.378;2023-01-29T09:27:15;38.53;;;21.02;;
44228;SDS011;29904;51.058;5.378;2023-01-29T09:29:41;41.60;;;22.92;;
44228;SDS011;29904;51.058;5.378;2023-01-29T09:32:07;37.90;;;21.73;;
44228;SDS011;29904;51.058;5.378;2023-01-29T09:34:35;39.30;;;22.13;;
44228;SDS011;29904;51.058;5.378;2023-01-29T09:37:00;41.35;;;22.00;;
44228;SDS011;29904;51.058;5.378;2023-01-29T09:39:26;39.88;;;22.38;;
44228;SDS011;29904;51.058;5.378;2023-01-29T09:41:57;40.33;;;21.87;;
44228;SDS011;29904;51.058;5.378;2023-01-29T09:44:57;41.22;;;23.13;;
44228;SDS011;29904;51.058;5.378;2023-01-29T09:47:34;35.63;;;20.38;;
44228;SDS011;29904;51.058;5.378;2023-01-29T09:50:04;39.58;;;21.60;;
44228;SDS011;29904;51.058;5.378;2023-01-29T09:52:45;38.28;;;21.65;;
44228;SDS011;29904;51.058;5.378;2023-01-29T09:55:27;40.08;;;22.38;;
44228;SDS011;29904;51.058;5.378;2023-01-29T09:58:11;40.97;;;22.42;;
44228;SDS011;29904;51.058;5.378;2023-01-29T10:06:14;38.88;;;21.77;;
44228;SDS011;29904;51.058;5.378;2023-01-29T10:14:30;37.05;;;21.35;;
44228;SDS011;29904;51.058;5.378;2023-01-29T10:22:29;42.23;;;21.93;;
44228;SDS011;29904;51.058;5.378;2023-01-29T10:25:03;38.35;;;20.80;;
44228;SDS011;29904;51.058;5.378;2023-01-29T10:27:37;37.80;;;21.35;;
44228;SDS011;29904;51.058;5.378;2023-01-29T10:30:06;39.07;;;22.43;;
44228;SDS011;29904;51.058;5.378;2023-01-29T10:32:35;39.60;;;22.07;;
44228;SDS011;29904;51.058;5.378;2023-01-29T10:35:03;38.65;;;22.35;;
44228;SDS011;29904;51.058;5.378;2023-01-29T10:37:40;39.85;;;22.40;;
44228;SDS011;29904;51.058;5.378;2023-01-29T10:40:23;40.05;;;22.38;;
44228;SDS011;29904;51.058;5.378;2023-01-29T10:43:03;38.00;;;21.55;;
44228;SDS011;29904;51.058;5.378;2023-01-29T10:48:35;38.08;;;21.58;;
44228;SDS011;29904;51.058;5.378;2023-01-29T10:56:42;39.38;;;21.95;;
44228;SDS011;29904;51.058;5.378;2023-01-29T11:01:57;36.55;;;20.58;;
44228;SDS011;29904;51.058;5.378;2023-01-29T11:04:23;37.22;;;20.80;;
44228;SDS011;29904;51.058;5.378;2023-01-29T11:06:54;33.88;;;19.13;;
44228;SDS011;29904;51.058;5.378;2023-01-29T11:09:31;36.30;;;20.77;;
44228;SDS011;29904;51.058;5.378;2023-01-29T11:12:02;35.67;;;20.75;;
44228;SDS011;29904;51.058;5.378;2023-01-29T11:17:17;35.93;;;20.93;;
44228;SDS011;29904;51.058;5.378;2023-01-29T11:19:46;35.40;;;20.42;;
44228;SDS011;29904;51.058;5.378;2023-01-29T11:22:23;35.80;;;20.27;;
44228;SDS011;29904;51.058;5.378;2023-01-29T11:25:36;38.50;;;21.98;;
44228;SDS011;29904;51.058;5.378;2023-01-29T11:27:43;33.22;;;20.02;;
44228;SDS011;29904;51.058;5.378;2023-01-29T11:30:13;38.13;;;21.45;;
44228;SDS011;29904;51.058;5.378;2023-01-29T11:35:43;35.20;;;20.40;;
44228;SDS011;29904;51.058;5.378;2023-01-29T11:40:42;36.97;;;20.55;;
44228;SDS011;29904;51.058;5.378;2023-01-29T11:43:30;33.30;;;18.83;;
44228;SDS011;29904;51.058;5.378;2023-01-29T11:46:05;34.73;;;19.77;;
44228;SDS011;29904;51.058;5.378;2023-01-29T11:48:43;32.38;;;19.17;;
44228;SDS011;29904;51.058;5.378;2023-01-29T11:51:19;32.67;;;19.17;;
44228;SDS011;29904;51.058;5.378;2023-01-29T11:53:54;33.92;;;19.88;;
44228;SDS011;29904;51.058;5.378;2023-01-29T11:56:26;34.93;;;20.10;;
44228;SDS011;29904;51.058;5.378;2023-01-29T11:58:53;35.10;;;20.08;;
44228;SDS011;29904;51.058;5.378;2023-01-29T12:01:32;31.77;;;18.88;;
44228;SDS011;29904;51.058;5.378;2023-01-29T12:04:00;32.17;;;19.27;;
44228;SDS011;29904;51.058;5.378;2023-01-29T12:06:32;33.47;;;18.92;;
44228;SDS011;29904;51.058;5.378;2023-01-29T12:09:14;33.77;;;19.87;;
44228;SDS011;29904;51.058;5.378;2023-01-29T12:11:42;32.15;;;19.58;;
44228;SDS011;29904;51.058;5.378;2023-01-29T12:14:41;32.03;;;18.92;;
44228;SDS011;29904;51.058;5.378;2023-01-29T12:17:06;34.10;;;20.25;;
44228;SDS011;29904;51.058;5.378;2023-01-29T12:19:46;32.78;;;19.02;;
44228;SDS011;29904;51.058;5.378;2023-01-29T12:28:21;32.15;;;19.17;;
44228;SDS011;29904;51.058;5.378;2023-01-29T12:30:58;32.40;;;19.75;;
44228;SDS011;29904;51.058;5.378;2023-01-29T12:36:43;30.48;;;17.75;;
44228;SDS011;29904;51.058;5.378;2023-01-29T12:39:17;31.25;;;18.35;;
44228;SDS011;29904;51.058;5.378;2023-01-29T12:41:46;33.40;;;18.90;;
44228;SDS011;29904;51.058;5.378;2023-01-29T12:46:59;31.08;;;18.13;;
44228;SDS011;29904;51.058;5.378;2023-01-29T12:49:34;31.48;;;18.30;;
44228;SDS011;29904;51.058;5.378;2023-01-29T12:52:06;29.85;;;18.13;;
44228;SDS011;29904;51.058;5.378;2023-01-29T13:00:07;28.65;;;16.48;;
44228;SDS011;29904;51.058;5.378;2023-01-29T13:02:47;29.10;;;17.08;;
44228;SDS011;29904;51.058;5.378;2023-01-29T13:08:10;25.93;;;15.40;;
44228;SDS011;29904;51.058;5.378;2023-01-29T13:10:48;28.13;;;16.83;;
44228;SDS011;29904;51.058;5.378;2023-01-29T13:15:54;30.20;;;17.80;;
44228;SDS011;29904;51.058;5.378;2023-01-29T13:21:02;28.60;;;17.13;;
44228;SDS011;29904;51.058;5.378;2023-01-29T13:25:58;28.17;;;16.17;;
44228;SDS011;29904;51.058;5.378;2023-01-29T13:28:24;29.00;;;16.80;;
44228;SDS011;29904;51.058;5.378;2023-01-29T13:33:37;27.48;;;15.75;;
44228;SDS011;29904;51.058;5.378;2023-01-29T13:36:06;27.85;;;15.93;;
44228;SDS011;29904;51.058;5.378;2023-01-29T13:38:41;25.60;;;15.75;;
44228;SDS011;29904;51.058;5.378;2023-01-29T13:41:09;28.67;;;15.73;;
44228;SDS011;29904;51.058;5.378;2023-01-29T13:43:38;28.80;;;16.15;;
44228;SDS011;29904;51.058;5.378;2023-01-29T13:46:16;27.83;;;16.77;;
44228;SDS011;29904;51.058;5.378;2023-01-29T13:48:46;29.65;;;17.25;;
44228;SDS011;29904;51.058;5.378;2023-01-29T13:51:16;27.33;;;16.23;;
44228;SDS011;29904;51.058;5.378;2023-01-29T13:53:59;28.53;;;16.63;;
44228;SDS011;29904;51.058;5.378;2023-01-29T13:58:58;30.90;;;17.10;;
44228;SDS011;29904;51.058;5.378;2023-01-29T14:06:56;30.02;;;17.40;;
44228;SDS011;29904;51.058;5.378;2023-01-29T14:14:50;29.77;;;17.17;;
44228;SDS011;29904;51.058;5.378;2023-01-29T14:17:26;28.30;;;16.58;;
44228;SDS011;29904;51.058;5.378;2023-01-29T14:19:58;28.23;;;16.80;;
44228;SDS011;29904;51.058;5.378;2023-01-29T14:22:27;29.42;;;16.30;;
44228;SDS011;29904;51.058;5.378;2023-01-29T14:24:58;30.57;;;17.73;;
44228;SDS011;29904;51.058;5.378;2023-01-29T14:27:27;26.77;;;16.17;;
44228;SDS011;29904;51.058;5.378;2023-01-29T14:29:59;28.50;;;16.93;;
44228;SDS011;29904;51.058;5.378;2023-01-29T14:32:30;28.67;;;16.67;;
44228;SDS011;29904;51.058;5.378;2023-01-29T14:35:01;30.13;;;16.55;;
44228;SDS011;29904;51.058;5.378;2023-01-29T14:42:32;29.10;;;16.48;;
44228;SDS011;29904;51.058;5.378;2023-01-29T14:45:20;27.77;;;16.48;;
44228;SDS011;29904;51.058;5.378;2023-01-29T14:48:00;26.92;;;15.60;;
44228;SDS011;29904;51.058;5.378;2023-01-29T14:53:05;24.23;;;15.17;;
44228;SDS011;29904;51.058;5.378;2023-01-29T14:56:14;26.73;;;16.25;;
44228;SDS011;29904;51.058;5.378;2023-01-29T14:58:49;25.83;;;15.63;;
44228;SDS011;29904;51.058;5.378;2023-01-29T15:01:23;25.80;;;15.48;;
44228;SDS011;29904;51.058;5.378;2023-01-29T15:04:05;28.17;;;16.88;;
44228;SDS011;29904;51.058;5.378;2023-01-29T15:06:44;26.10;;;15.55;;
44228;SDS011;29904;51.058;5.378;2023-01-29T15:09:27;25.38;;;15.38;;
44228;SDS011;29904;51.058;5.378;2023-01-29T15:11:57;24.50;;;14.82;;
44228;SDS011;29904;51.058;5.378;2023-01-29T15:14:37;26.50;;;15.75;;
44228;SDS011;29904;51.058;5.378;2023-01-29T15:19:35;24.90;;;15.38;;
44228;SDS011;29904;51.058;5.378;2023-01-29T15:22:10;27.50;;;15.98;;
44228;SDS011;29904;51.058;5.378;2023-01-29T15:24:38;25.35;;;15.00;;
44228;SDS011;29904;51.058;5.378;2023-01-29T15:27:12;24.50;;;14.38;;
44228;SDS011;29904;51.058;5.378;2023-01-29T15:29:50;24.92;;;14.90;;
44228;SDS011;29904;51.058;5.378;2023-01-29T15:32:55;23.75;;;14.75;;
44228;SDS011;29904;51.058;5.378;2023-01-29T15:35:35;24.25;;;15.38;;
44228;SDS011;29904;51.058;5.378;2023-01-29T15:38:05;24.77;;;15.48;;
44228;SDS011;29904;51.058;5.378;2023-01-29T15:40:56;23.80;;;15.13;;
44228;SDS011;29904;51.058;5.378;2023-01-29T15:43:23;22.35;;;14.07;;
44228;SDS011;29904;51.058;5.378;2023-01-29T15:45:57;23.90;;;13.80;;
44228;SDS011;29904;51.058;5.378;2023-01-29T15:48:33;20.95;;;13.23;;
44228;SDS011;29904;51.058;5.378;2023-01-29T15:51:09;22.77;;;13.65;;
44228;SDS011;29904;51.058;5.378;2023-01-29T15:53:41;21.08;;;12.75;;
44228;SDS011;29904;51.058;5.378;2023-01-29T15:56:10;22.50;;;13.88;;
44228;SDS011;29904;51.058;5.378;2023-01-29T15:58:37;22.25;;;13.65;;
44228;SDS011;29904;51.058;5.378;2023-01-29T16:01:04;21.50;;;13.32;;
44228;SDS011;29904;51.058;5.378;2023-01-29T16:03:31;22.25;;;14.23;;
44228;SDS011;29904;51.058;5.378;2023-01-29T16:06:01;22.05;;;14.27;;
44228;SDS011;29904;51.058;5.378;2023-01-29T16:08:27;21.98;;;13.40;;
44228;SDS011;29904;51.058;5.378;2023-01-29T16:10:55;22.43;;;13.97;;
44228;SDS011;29904;51.058;5.378;2023-01-29T16:13:26;21.73;;;13.18;;
44228;SDS011;29904;51.058;5.378;2023-01-29T16:18:48;20.83;;;13.32;;
44228;SDS011;29904;51.058;5.378;2023-01-29T16:21:38;20.67;;;12.18;;
44228;SDS011;29904;51.058;5.378;2023-01-29T16:24:08;21.75;;;13.35;;
44228;SDS011;29904;51.058;5.378;2023-01-29T16:26:41;19.42;;;12.32;;
44228;SDS011;29904;51.058;5.378;2023-01-29T16:29:10;21.27;;;12.95;;
44228;SDS011;29904;51.058;5.378;2023-01-29T16:31:40;21.58;;;13.00;;
44228;SDS011;29904;51.058;5.378;2023-01-29T16:34:20;20.83;;;13.50;;
44228;SDS011;29904;51.058;5.378;2023-01-29T16:36:53;22.13;;;14.07;;
44228;SDS011;29904;51.058;5.378;2023-01-29T16:39:23;20.90;;;13.57;;
44228;SDS011;29904;51.058;5.378;2023-01-29T16:42:01;22.60;;;13.60;;
44228;SDS011;29904;51.058;5.378;2023-01-29T16:45:00;22.25;;;13.38;;
44228;SDS011;29904;51.058;5.378;2023-01-29T16:47:36;21.98;;;14.20;;
44228;SDS011;29904;51.058;5.378;2023-01-29T16:52:53;22.23;;;13.02;;
44228;SDS011;29904;51.058;5.378;2023-01-29T16:55:31;21.45;;;13.43;;
44228;SDS011;29904;51.058;5.378;2023-01-29T16:58:02;20.75;;;13.13;;
44228;SDS011;29904;51.058;5.378;2023-01-29T17:00:36;18.88;;;12.57;;
44228;SDS011;29904;51.058;5.378;2023-01-29T17:03:05;18.48;;;12.40;;
44228;SDS011;29904;51.058;5.378;2023-01-29T17:05:35;19.65;;;13.30;;
44228;SDS011;29904;51.058;5.378;2023-01-29T17:08:02;22.55;;;13.95;;
44228;SDS011;29904;51.058;5.378;2023-01-29T17:10:29;21.67;;;13.60;;
44228;SDS011;29904;51.058;5.378;2023-01-29T17:13:05;20.10;;;13.55;;
44228;SDS011;29904;51.058;5.378;2023-01-29T17:18:16;23.10;;;13.98;;
44228;SDS011;29904;51.058;5.378;2023-01-29T17:20:47;21.13;;;13.30;;
44228;SDS011;29904;51.058;5.378;2023-01-29T17:23:13;22.88;;;14.13;;